Bogalusa, LA

7:20 AM CDT on August 27, 2016 (GMT -0500)
Carr Memorial | | Change Station

Elev 118 ft 30.81 °N, 89.86 °W | Updated 5 minutes ago

Clear
Clear
74 °F
Feels Like 74 °F
N
0
Wind Variable Wind from North

Today
High -- | Low -- °F
--% Chance of Precip.
Yesterday
High -- | Low -- °F
Precip. -- in
Pressure 30.01 in
Visibility 5.0 miles
Clouds Clear
Dew Point 71 °F
Humidity 90%
Rainfall 0.00 in
Snow Depth Not available.
6:33 AM 7:27 PM
Waning Crescent, 25% visible
METAR KBXA 271215Z AUTO 00000KT 5SM BR CLR 24/22 A3001 RMK AO2 T02360218
Pressure 30.01 in
Visibility 5.0 miles
Clouds Clear
Dew Point 71 °F
Humidity 90%
Rainfall 0.00 in
Snow Depth Not available.
6:33 AM 7:27 PM
Waning Crescent, 25% visible
METAR KBXA 271215Z AUTO 00000KT 5SM BR CLR 24/22 A3001 RMK AO2 T02360218

10-Day Weather Forecast

Almanac

Astronomy

Aug. 27, 2016 Rise Set
Actual Time
Civil Twilight
Nautical Twilight
Astronomical Twilight
Moon
Length of Visible Light
Length of Day
Tomorrow will be .
, % of the Moon is Illuminated

Today's Extremes

State Highs State Lows

Community

WunderPhotos

Upload Photos

1,935,325 photos uploaded!

WunderBlog® & News

Nearby

Air Quality

  Air Quality AQ Index Pollutant
Not available.

Snow Depth

Station Depth Elevation

Earthquake Activity

City Distance Mag. Time & Date
Minimum magnitude displayed is 2.5.

Coastal Water Temperatures

Place Temperature

Stations

Nearby Weather Stations

Station Location Temp. Windchill Dew Point Humidity Wind Precip. Elev Updated Type
                   

Watches & Warnings

There are currently no watches in effect.